createdAt,value
2017-08-24T00:01:23.481Z,22.10
2017-08-24T00:03:51.050Z,22.20
2017-08-24T00:06:18.609Z,22.20
2017-08-24T00:08:46.185Z,22.20
2017-08-24T00:11:13.750Z,22.30
2017-08-24T00:13:42.080Z,22.30
2017-08-24T00:16:09.677Z,22.30
2017-08-24T00:18:37.241Z,22.30
2017-08-24T00:21:04.836Z,22.20
2017-08-24T00:23:32.409Z,22.10
2017-08-24T00:25:59.965Z,22.00
2017-08-24T00:28:27.542Z,22.00
2017-08-24T00:30:55.131Z,22.00
2017-08-24T00:33:22.709Z,22.00
2017-08-24T00:35:50.293Z,21.90
2017-08-24T00:38:18.645Z,21.90
2017-08-24T00:40:46.278Z,21.90
2017-08-24T00:43:13.863Z,21.80
2017-08-24T00:45:41.457Z,21.70
2017-08-24T00:48:09.017Z,21.60
2017-08-24T00:50:36.601Z,21.50
2017-08-24T00:53:04.174Z,21.50
2017-08-24T00:55:31.894Z,21.50
2017-08-24T00:57:59.502Z,21.50
2017-08-24T01:00:27.053Z,21.30
2017-08-24T01:02:54.623Z,21.30
2017-08-24T01:05:22.228Z,21.30
2017-08-24T01:07:49.811Z,21.10
2017-08-24T01:10:18.144Z,20.90
2017-08-24T01:12:45.758Z,20.90
2017-08-24T01:15:13.345Z,20.80
2017-08-24T01:17:40.997Z,20.80
2017-08-24T01:20:08.563Z,20.70
2017-08-24T01:22:36.148Z,20.70
2017-08-24T01:25:03.744Z,20.70
2017-08-24T01:27:31.294Z,20.80
2017-08-24T01:29:58.858Z,20.80
2017-08-24T01:32:26.472Z,20.80
2017-08-24T01:34:54.041Z,20.80
2017-08-24T01:37:21.625Z,20.70
2017-08-24T01:39:49.214Z,20.70
2017-08-24T01:42:16.789Z,20.60
2017-08-24T01:44:44.366Z,20.60
2017-08-24T01:47:11.938Z,20.60
2017-08-24T01:49:39.665Z,20.60
2017-08-24T01:52:07.228Z,20.60
2017-08-24T01:54:34.849Z,20.60
2017-08-24T01:57:02.418Z,20.50
2017-08-24T01:59:30.005Z,20.50
2017-08-24T02:01:57.574Z,20.50
2017-08-24T02:04:25.162Z,20.60
2017-08-24T02:06:52.721Z,20.60
2017-08-24T02:09:20.296Z,20.60
2017-08-24T02:11:47.967Z,20.60
2017-08-24T02:14:16.185Z,20.60
2017-08-24T02:16:43.730Z,20.70
2017-08-24T02:19:11.311Z,20.70
2017-08-24T02:21:38.887Z,20.80
2017-08-24T02:24:07.310Z,20.80
2017-08-24T02:26:34.878Z,20.80
2017-08-24T02:29:02.474Z,20.80
2017-08-24T02:31:30.882Z,20.80
2017-08-24T02:33:58.502Z,20.80
2017-08-24T02:36:26.074Z,20.90
2017-08-24T02:38:53.669Z,20.80
2017-08-24T02:41:21.255Z,20.90
2017-08-24T02:43:48.837Z,20.80
2017-08-24T02:46:16.433Z,20.90
2017-08-24T02:48:44.010Z,20.80
2017-08-24T02:51:11.602Z,20.80
2017-08-24T02:53:39.162Z,20.80
2017-08-24T02:56:06.762Z,20.80
2017-08-24T02:58:34.329Z,20.80
2017-08-24T03:01:01.929Z,20.80
2017-08-24T03:03:29.538Z,20.80
2017-08-24T03:05:57.126Z,20.70
2017-08-24T03:08:24.705Z,20.70
2017-08-24T03:10:52.314Z,20.60
2017-08-24T03:13:19.906Z,20.60
2017-08-24T03:15:47.480Z,20.60
2017-08-24T03:18:15.070Z,20.60
2017-08-24T03:20:42.642Z,20.60
2017-08-24T03:23:10.249Z,20.60
2017-08-24T03:25:38.587Z,20.40
2017-08-24T03:28:06.184Z,20.40
2017-08-24T03:30:34.512Z,20.20
2017-08-24T03:33:02.074Z,20.20
2017-08-24T03:35:29.735Z,20.30
2017-08-24T03:37:57.466Z,20.40
2017-08-24T03:40:25.030Z,20.50
2017-08-24T03:42:52.621Z,20.50
2017-08-24T03:45:20.204Z,20.50
2017-08-24T03:47:47.789Z,20.50
2017-08-24T03:50:15.358Z,20.50
2017-08-24T03:52:42.945Z,20.50
2017-08-24T03:55:10.529Z,20.50
2017-08-24T03:57:38.161Z,20.40
2017-08-24T04:00:05.727Z,20.40
2017-08-24T04:02:33.309Z,20.30
2017-08-24T04:05:00.910Z,20.40
2017-08-24T04:07:28.464Z,20.40
2017-08-24T04:09:56.051Z,20.40
2017-08-24T04:12:24.422Z,20.40
2017-08-24T04:14:52.007Z,20.30
2017-08-24T04:17:19.586Z,20.30
2017-08-24T04:19:47.169Z,20.30
2017-08-24T04:22:14.765Z,20.10
2017-08-24T04:24:42.351Z,20.10
2017-08-24T04:27:09.928Z,20.10
2017-08-24T04:29:37.493Z,20.10
2017-08-24T04:32:05.085Z,20.00
2017-08-24T04:34:32.666Z,20.00
2017-08-24T04:37:00.292Z,19.90
2017-08-24T04:39:27.874Z,19.80
2017-08-24T04:41:55.438Z,19.70
2017-08-24T04:44:23.021Z,19.70
2017-08-24T04:46:51.433Z,19.60
2017-08-24T04:49:19.004Z,19.60
2017-08-24T04:51:46.594Z,19.60
2017-08-24T04:54:14.168Z,19.60
2017-08-24T04:56:41.763Z,19.60
2017-08-24T04:59:09.337Z,19.60
2017-08-24T05:01:36.913Z,19.50
2017-08-24T05:04:04.473Z,19.40
2017-08-24T05:06:32.086Z,19.30
2017-08-24T05:08:59.670Z,19.30
2017-08-24T05:11:27.229Z,19.20
2017-08-24T05:13:54.847Z,19.10
2017-08-24T05:16:22.418Z,19.10
2017-08-24T05:18:50.007Z,19.00
2017-08-24T05:21:17.585Z,19.00
2017-08-24T05:23:45.150Z,18.90
2017-08-24T05:26:12.736Z,19.10
2017-08-24T05:28:40.297Z,19.00
2017-08-24T05:31:07.922Z,19.10
2017-08-24T05:33:35.508Z,19.20
2017-08-24T05:36:03.089Z,19.20
2017-08-24T05:38:30.666Z,19.10
2017-08-24T05:40:58.224Z,19.20
2017-08-24T05:43:26.605Z,19.10
2017-08-24T05:45:54.172Z,19.10
2017-08-24T05:48:22.505Z,19.20
2017-08-24T05:50:50.115Z,19.20
2017-08-24T05:53:17.699Z,19.20
2017-08-24T05:55:45.335Z,19.20
2017-08-24T05:58:12.914Z,19.20
2017-08-24T06:00:40.493Z,19.40
2017-08-24T06:03:08.083Z,19.40
2017-08-24T06:05:35.763Z,19.50
2017-08-24T06:08:03.342Z,19.50
2017-08-24T06:10:30.923Z,19.50
2017-08-24T06:12:59.281Z,19.60
2017-08-24T06:15:26.862Z,19.60
2017-08-24T06:17:55.231Z,19.80
2017-08-24T06:20:22.838Z,19.70
2017-08-24T06:22:50.494Z,19.80
2017-08-24T06:25:18.070Z,19.70
2017-08-24T06:27:45.642Z,19.60
2017-08-24T06:30:13.218Z,19.60
2017-08-24T06:32:40.825Z,19.40
2017-08-24T06:35:08.411Z,19.50
2017-08-24T06:37:36.001Z,19.40
2017-08-24T06:40:03.591Z,19.40
2017-08-24T06:42:31.178Z,19.50
2017-08-24T06:44:58.734Z,19.60
2017-08-24T06:47:26.289Z,19.80
2017-08-24T06:49:53.925Z,20.00
2017-08-24T06:52:22.274Z,20.60
2017-08-24T06:54:49.841Z,20.60
2017-08-24T06:57:17.432Z,20.70
2017-08-24T06:59:45.798Z,20.30
2017-08-24T07:02:13.378Z,20.20
2017-08-24T07:04:40.961Z,20.20
2017-08-24T07:07:08.522Z,20.00
2017-08-24T07:09:36.115Z,20.00
2017-08-24T07:12:03.739Z,19.90
2017-08-24T07:14:31.322Z,19.80
2017-08-24T07:16:58.886Z,19.80
2017-08-24T07:19:26.462Z,19.70
2017-08-24T07:21:54.051Z,19.70
2017-08-24T07:24:21.606Z,19.60
2017-08-24T07:26:49.213Z,19.80
2017-08-24T07:29:16.766Z,19.90
2017-08-24T07:31:44.349Z,20.00
2017-08-24T07:34:11.978Z,20.00
2017-08-24T07:36:39.567Z,19.90
2017-08-24T07:39:07.136Z,19.90
2017-08-24T07:41:34.694Z,20.00
2017-08-24T07:44:02.272Z,20.30
2017-08-24T07:46:29.850Z,20.50
2017-08-24T07:48:57.466Z,20.70
2017-08-24T07:51:25.029Z,20.80
2017-08-24T07:53:52.673Z,20.90
2017-08-24T07:56:20.322Z,20.80
2017-08-24T07:58:47.870Z,20.70
2017-08-24T08:01:15.457Z,20.60
2017-08-24T08:03:43.029Z,20.80
2017-08-24T08:06:10.626Z,21.00
2017-08-24T08:08:38.190Z,21.10
2017-08-24T08:11:05.930Z,21.20
2017-08-24T08:13:33.514Z,21.10
2017-08-24T08:16:01.090Z,22.00
2017-08-24T08:18:28.686Z,22.30
2017-08-24T08:20:56.250Z,22.50
2017-08-24T08:23:23.819Z,22.60
2017-08-24T08:25:51.396Z,22.60
2017-08-24T08:28:19.238Z,22.70
2017-08-24T08:30:46.815Z,22.70
2017-08-24T08:33:14.418Z,22.70
2017-08-24T08:35:41.986Z,23.00
2017-08-24T08:38:09.816Z,24.10
2017-08-24T08:40:37.405Z,25.20
2017-08-24T08:43:04.990Z,25.90
2017-08-24T08:45:32.589Z,26.40
2017-08-24T08:48:00.151Z,26.80
2017-08-24T08:50:27.735Z,26.90
2017-08-24T08:52:55.306Z,26.60
2017-08-24T08:55:22.891Z,26.20
2017-08-24T08:57:51.157Z,25.90
2017-08-24T09:00:18.776Z,26.30
2017-08-24T09:02:46.378Z,26.30
2017-08-24T09:05:14.039Z,27.40
2017-08-24T09:07:41.643Z,27.80
2017-08-24T09:10:09.570Z,27.00
2017-08-24T09:12:37.437Z,27.50
2017-08-24T09:15:05.034Z,27.60
2017-08-24T09:17:32.759Z,27.80
2017-08-24T09:20:00.561Z,27.00
2017-08-24T09:22:28.126Z,26.30
2017-08-24T09:24:56.449Z,24.80
2017-08-24T09:27:24.158Z,24.70
2017-08-24T09:29:51.770Z,25.30
2017-08-24T09:32:19.327Z,26.90
2017-08-24T09:34:46.917Z,28.00
2017-08-24T09:37:14.511Z,28.50
2017-08-24T09:39:42.097Z,28.20
2017-08-24T09:42:09.715Z,26.90
2017-08-24T09:44:37.297Z,27.20
2017-08-24T09:47:04.884Z,27.10
2017-08-24T09:49:32.475Z,26.80
2017-08-24T09:52:00.042Z,26.70
2017-08-24T09:54:27.744Z,26.40
2017-08-24T09:56:55.327Z,26.10
2017-08-24T09:59:23.020Z,26.00
2017-08-24T10:01:50.610Z,25.30
2017-08-24T10:04:19.061Z,24.70
2017-08-24T10:06:46.650Z,24.80
2017-08-24T10:09:15.023Z,25.40
2017-08-24T10:11:42.659Z,25.40
2017-08-24T10:14:10.222Z,26.00
2017-08-24T10:16:37.809Z,26.00
2017-08-24T10:19:05.386Z,26.90
2017-08-24T10:21:32.971Z,26.40
2017-08-24T10:24:00.549Z,25.80
2017-08-24T10:26:28.181Z,25.30
2017-08-24T10:28:55.775Z,25.20
2017-08-24T10:31:23.371Z,25.30
2017-08-24T10:33:50.979Z,24.90
2017-08-24T10:36:18.542Z,24.70
2017-08-24T10:38:46.152Z,24.40
2017-08-24T10:41:13.723Z,24.40
2017-08-24T10:43:41.318Z,24.30
2017-08-24T10:46:08.926Z,24.50
2017-08-24T10:48:36.542Z,25.00
2017-08-24T10:51:04.093Z,25.60
2017-08-24T10:53:31.690Z,26.10
2017-08-24T10:55:59.316Z,26.20
2017-08-24T10:58:26.906Z,26.20
2017-08-24T11:00:54.486Z,25.90
2017-08-24T11:03:22.073Z,25.70
2017-08-24T11:05:49.690Z,25.30
2017-08-24T11:08:17.279Z,25.40
2017-08-24T11:10:44.894Z,25.50
2017-08-24T11:13:12.482Z,25.30
2017-08-24T11:15:40.058Z,25.40
2017-08-24T11:18:07.670Z,25.50
2017-08-24T11:20:35.234Z,25.50
2017-08-24T11:23:02.909Z,25.10
2017-08-24T11:25:30.481Z,24.70
2017-08-24T11:27:58.064Z,24.30
2017-08-24T11:30:25.641Z,24.10
2017-08-24T11:32:53.219Z,24.20
2017-08-24T11:35:20.810Z,24.20
2017-08-24T11:37:48.368Z,24.40
2017-08-24T11:40:15.970Z,25.10
2017-08-24T11:42:43.541Z,25.90
2017-08-24T11:45:11.140Z,26.30
2017-08-24T11:47:38.689Z,27.00
2017-08-24T11:50:06.255Z,27.60
2017-08-24T11:52:33.855Z,27.60
2017-08-24T11:55:01.454Z,27.40
2017-08-24T11:57:29.032Z,27.50
2017-08-24T11:59:56.629Z,28.10
2017-08-24T12:02:24.201Z,27.90
2017-08-24T12:04:51.757Z,27.60
2017-08-24T12:07:19.336Z,27.60
2017-08-24T12:09:47.642Z,27.10
2017-08-24T12:12:15.258Z,27.10
2017-08-24T12:14:42.834Z,27.10
2017-08-24T12:17:10.493Z,27.30
2017-08-24T12:19:38.169Z,27.30
2017-08-24T12:22:05.754Z,27.30
2017-08-24T12:24:33.429Z,27.00
2017-08-24T12:27:01.074Z,26.70
2017-08-24T12:29:28.641Z,26.40
2017-08-24T12:31:56.217Z,26.00
2017-08-24T12:34:23.912Z,26.10
2017-08-24T12:36:51.464Z,26.50
2017-08-24T12:39:19.021Z,26.70
2017-08-24T12:41:46.624Z,26.80
2017-08-24T12:44:14.213Z,27.10
2017-08-24T12:46:41.797Z,27.60
2017-08-24T12:49:09.417Z,27.60
2017-08-24T12:51:37.014Z,27.60
2017-08-24T12:54:04.591Z,27.40
2017-08-24T12:56:32.199Z,27.20
2017-08-24T12:58:59.791Z,26.70
2017-08-24T13:01:27.749Z,26.30
2017-08-24T13:03:55.321Z,26.30
2017-08-24T13:06:23.674Z,26.50
2017-08-24T13:08:51.261Z,26.50
2017-08-24T13:11:18.886Z,26.90
2017-08-24T13:13:46.844Z,27.00
2017-08-24T13:16:14.421Z,26.70
2017-08-24T13:18:43.775Z,26.90
2017-08-24T13:21:11.341Z,27.30
2017-08-24T13:23:38.922Z,27.20
2017-08-24T13:26:06.538Z,26.90
2017-08-24T13:28:34.910Z,27.10
2017-08-24T13:31:02.518Z,27.10
2017-08-24T13:33:30.359Z,27.40
2017-08-24T13:35:57.934Z,27.40
2017-08-24T13:38:25.605Z,27.50
2017-08-24T13:40:53.238Z,27.40
2017-08-24T13:43:20.837Z,27.40
2017-08-24T13:45:48.423Z,27.50
2017-08-24T13:48:16.019Z,27.60
2017-08-24T13:50:43.608Z,27.40
2017-08-24T13:53:11.213Z,27.20
2017-08-24T13:55:39.409Z,27.10
2017-08-24T13:58:07.078Z,26.90
2017-08-24T14:00:35.406Z,27.00
2017-08-24T14:03:02.986Z,26.90
2017-08-24T14:05:30.587Z,27.00
2017-08-24T14:07:58.924Z,26.80
2017-08-24T14:10:26.528Z,26.80
2017-08-24T14:12:54.087Z,26.70
2017-08-24T14:15:21.649Z,26.60
2017-08-24T14:17:49.396Z,26.70
2017-08-24T14:20:17.025Z,26.50
2017-08-24T14:22:44.602Z,26.50
2017-08-24T14:25:12.174Z,26.30
2017-08-24T14:27:39.759Z,26.20
2017-08-24T14:30:07.321Z,25.90
2017-08-24T14:32:35.671Z,26.10
2017-08-24T14:35:03.300Z,26.10
2017-08-24T14:37:30.900Z,26.40
2017-08-24T14:39:58.470Z,26.40
2017-08-24T14:42:26.058Z,26.20
2017-08-24T14:44:53.674Z,26.20
2017-08-24T14:47:21.256Z,25.90
2017-08-24T14:49:48.849Z,25.60
2017-08-24T14:52:16.422Z,25.30
2017-08-24T14:54:44.038Z,25.30
2017-08-24T14:57:11.680Z,25.20
2017-08-24T14:59:39.261Z,25.10
2017-08-24T15:02:07.630Z,25.40
2017-08-24T15:04:35.249Z,25.40
2017-08-24T15:07:02.850Z,25.40
2017-08-24T15:09:30.405Z,25.30
2017-08-24T15:11:58.014Z,25.20
2017-08-24T15:14:25.609Z,25.10
2017-08-24T15:16:53.185Z,24.90
2017-08-24T15:19:20.758Z,24.70
2017-08-24T15:21:48.338Z,24.60
2017-08-24T15:24:15.957Z,24.70
2017-08-24T15:26:43.528Z,24.70
2017-08-24T15:29:11.095Z,24.70
2017-08-24T15:31:38.685Z,24.60
2017-08-24T15:34:07.034Z,24.50
2017-08-24T15:36:34.634Z,24.50
2017-08-24T15:39:02.195Z,24.60
2017-08-24T15:41:29.786Z,24.40
2017-08-24T15:43:57.363Z,24.40
2017-08-24T15:46:24.975Z,24.30
2017-08-24T15:48:52.546Z,24.20
2017-08-24T15:51:20.126Z,24.20
2017-08-24T15:53:47.746Z,24.20
2017-08-24T15:56:16.369Z,24.30
2017-08-24T15:58:43.934Z,24.40
2017-08-24T16:01:11.562Z,24.40
2017-08-24T16:03:39.123Z,24.30
2017-08-24T16:06:06.693Z,24.20
2017-08-24T16:08:35.021Z,23.90
2017-08-24T16:11:02.598Z,23.90
2017-08-24T16:13:30.166Z,23.80
2017-08-24T16:15:57.765Z,23.80
2017-08-24T16:18:25.324Z,23.60
2017-08-24T16:20:52.885Z,23.60
2017-08-24T16:23:20.467Z,23.60
2017-08-24T16:25:48.048Z,23.50
2017-08-24T16:28:15.626Z,23.50
2017-08-24T16:30:43.206Z,23.40
2017-08-24T16:33:10.778Z,23.40
2017-08-24T16:35:38.385Z,23.50
2017-08-24T16:38:05.940Z,23.40
2017-08-24T16:40:33.543Z,23.40
2017-08-24T16:43:01.118Z,23.30
2017-08-24T16:45:29.450Z,23.10
2017-08-24T16:47:57.029Z,23.10
2017-08-24T16:50:24.625Z,23.10
2017-08-24T16:52:52.221Z,23.30
2017-08-24T16:55:19.786Z,23.30
2017-08-24T16:57:47.412Z,23.40
2017-08-24T17:00:14.990Z,23.40
2017-08-24T17:02:42.562Z,23.50
2017-08-24T17:05:10.230Z,23.50
2017-08-24T17:07:37.809Z,23.60
2017-08-24T17:10:05.399Z,23.60
2017-08-24T17:12:32.965Z,23.50
2017-08-24T17:15:00.553Z,23.40
2017-08-24T17:17:28.154Z,23.30
2017-08-24T17:19:55.800Z,23.10
2017-08-24T17:22:23.377Z,23.10
2017-08-24T17:24:51.018Z,23.00
2017-08-24T17:27:18.597Z,22.90
2017-08-24T17:29:46.234Z,22.80
2017-08-24T17:32:13.822Z,22.60
2017-08-24T17:34:41.526Z,22.50
2017-08-24T17:37:09.101Z,22.50
2017-08-24T17:39:36.678Z,22.40
2017-08-24T17:42:04.254Z,22.40
2017-08-24T17:44:31.819Z,22.30
2017-08-24T17:46:59.403Z,22.20
2017-08-24T17:49:26.996Z,22.00
2017-08-24T17:51:54.561Z,22.00
2017-08-24T17:54:22.154Z,22.00
2017-08-24T17:56:49.822Z,21.90
2017-08-24T17:59:17.393Z,21.70
2017-08-24T18:01:45.018Z,21.70
2017-08-24T18:04:12.590Z,21.60
2017-08-24T18:06:40.165Z,21.60
2017-08-24T18:09:07.760Z,21.70
2017-08-24T18:11:35.413Z,21.70
2017-08-24T18:14:02.993Z,21.60
2017-08-24T18:16:30.606Z,21.60
2017-08-24T18:18:58.170Z,21.60
2017-08-24T18:21:25.766Z,21.60
2017-08-24T18:23:53.336Z,21.60
2017-08-24T18:26:20.886Z,21.50
2017-08-24T18:28:48.446Z,21.50
2017-08-24T18:31:16.023Z,21.40
2017-08-24T18:33:43.613Z,21.30
2017-08-24T18:36:11.190Z,21.20
2017-08-24T18:38:38.782Z,21.20
2017-08-24T18:41:06.356Z,21.10
2017-08-24T18:43:34.024Z,21.00
2017-08-24T18:46:01.606Z,21.00
2017-08-24T18:48:29.169Z,20.90
2017-08-24T18:50:57.541Z,20.60
2017-08-24T18:53:25.117Z,20.60
2017-08-24T18:55:52.708Z,20.50
2017-08-24T18:58:20.280Z,20.30
2017-08-24T19:00:47.877Z,20.20
2017-08-24T19:03:15.449Z,20.00
2017-08-24T19:05:43.034Z,19.90
2017-08-24T19:08:10.630Z,19.90
2017-08-24T19:10:38.190Z,19.80
2017-08-24T19:13:05.813Z,19.70
2017-08-24T19:15:33.413Z,19.60
2017-08-24T19:18:01.054Z,19.60
2017-08-24T19:20:28.619Z,19.50
2017-08-24T19:22:56.251Z,19.50
2017-08-24T19:25:24.601Z,19.40
2017-08-24T19:27:52.204Z,19.30
2017-08-24T19:30:19.807Z,19.30
2017-08-24T19:32:47.392Z,19.30
2017-08-24T19:35:15.007Z,19.30
2017-08-24T19:37:42.617Z,19.30
2017-08-24T19:40:10.181Z,19.30
2017-08-24T19:42:37.840Z,19.30
2017-08-24T19:45:05.428Z,19.20
2017-08-24T19:47:33.781Z,19.30
2017-08-24T19:50:01.362Z,19.30
2017-08-24T19:52:28.940Z,19.30
2017-08-24T19:54:56.541Z,19.30
2017-08-24T19:57:24.171Z,19.30
2017-08-24T19:59:51.764Z,19.20
2017-08-24T20:02:19.326Z,19.20
2017-08-24T20:04:46.910Z,19.10
2017-08-24T20:07:14.561Z,19.10
2017-08-24T20:09:42.136Z,19.00
2017-08-24T20:12:10.486Z,18.90
2017-08-24T20:14:38.090Z,18.90
2017-08-24T20:17:05.638Z,18.90
2017-08-24T20:19:33.221Z,18.90
2017-08-24T20:22:00.790Z,18.90
2017-08-24T20:24:28.458Z,18.80
2017-08-24T20:26:56.056Z,18.70
2017-08-24T20:29:23.612Z,18.60
2017-08-24T20:31:51.179Z,18.60
2017-08-24T20:34:18.750Z,18.60
2017-08-24T20:36:46.299Z,18.60
2017-08-24T20:39:13.909Z,18.60
2017-08-24T20:41:41.486Z,18.50
2017-08-24T20:44:09.085Z,18.40
2017-08-24T20:46:36.642Z,18.30
2017-08-24T20:49:04.203Z,18.20
2017-08-24T20:51:31.812Z,18.20
2017-08-24T20:53:59.411Z,18.20
2017-08-24T20:56:27.075Z,18.30
2017-08-24T20:58:54.749Z,18.30
2017-08-24T21:01:22.338Z,18.20
2017-08-24T21:03:50.017Z,18.10
2017-08-24T21:06:18.369Z,18.00
2017-08-24T21:08:45.961Z,18.00
2017-08-24T21:11:14.294Z,17.90
2017-08-24T21:13:41.884Z,17.80
2017-08-24T21:16:09.442Z,17.80
2017-08-24T21:18:37.053Z,17.80
2017-08-24T21:21:04.619Z,17.70
2017-08-24T21:23:32.177Z,17.70
2017-08-24T21:25:59.811Z,17.70
2017-08-24T21:28:27.373Z,17.70
2017-08-24T21:30:54.977Z,17.60
2017-08-24T21:33:22.563Z,17.60
2017-08-24T21:35:50.160Z,17.50
2017-08-24T21:38:17.724Z,17.50
2017-08-24T21:40:45.347Z,17.50
2017-08-24T21:43:12.953Z,17.40
2017-08-24T21:45:40.520Z,17.40
2017-08-24T21:48:08.118Z,17.40
2017-08-24T21:50:35.701Z,17.40
2017-08-24T21:53:03.290Z,17.30
2017-08-24T21:55:30.841Z,17.30
2017-08-24T21:57:58.436Z,17.30
2017-08-24T22:00:25.997Z,17.20
2017-08-24T22:02:53.586Z,17.20
2017-08-24T22:05:21.183Z,17.10
2017-08-24T22:07:49.542Z,17.10
2017-08-24T22:10:17.104Z,17.00
2017-08-24T22:12:44.677Z,17.10
2017-08-24T22:15:13.029Z,17.00
2017-08-24T22:17:40.668Z,17.00
2017-08-24T22:20:08.254Z,16.90
2017-08-24T22:22:35.829Z,16.90
2017-08-24T22:25:03.430Z,16.80
2017-08-24T22:27:30.977Z,16.80
2017-08-24T22:29:58.569Z,16.70
2017-08-24T22:32:26.129Z,16.70
2017-08-24T22:34:53.707Z,16.70
2017-08-24T22:37:21.297Z,16.70
2017-08-24T22:39:48.852Z,16.60
2017-08-24T22:42:16.431Z,16.60
2017-08-24T22:44:44.765Z,16.60
2017-08-24T22:47:12.387Z,16.60
2017-08-24T22:49:39.958Z,16.60
2017-08-24T22:52:07.529Z,16.60
2017-08-24T22:54:40.809Z,16.50
2017-08-24T22:57:13.917Z,16.50
2017-08-24T22:59:47.177Z,16.50
2017-08-24T23:02:20.352Z,16.50
2017-08-24T23:04:48.826Z,16.50
2017-08-24T23:07:16.708Z,16.40
2017-08-24T23:09:44.620Z,16.50
2017-08-24T23:12:12.306Z,16.50
2017-08-24T23:14:39.881Z,16.60
2017-08-24T23:17:07.511Z,16.70
2017-08-24T23:19:35.081Z,16.60
2017-08-24T23:22:02.653Z,16.60
2017-08-24T23:24:30.239Z,16.50
2017-08-24T23:26:57.885Z,16.40
2017-08-24T23:29:25.466Z,16.40
2017-08-24T23:31:53.050Z,16.40
2017-08-24T23:34:20.630Z,16.40
2017-08-24T23:36:48.189Z,16.40
2017-08-24T23:39:15.752Z,16.30
2017-08-24T23:41:43.325Z,16.30
2017-08-24T23:44:10.891Z,16.30
2017-08-24T23:46:38.476Z,16.20
2017-08-24T23:49:06.053Z,16.30
2017-08-24T23:51:33.651Z,16.20
2017-08-24T23:54:01.225Z,16.10
2017-08-24T23:56:28.789Z,16.20
2017-08-24T23:58:56.374Z,16.20
